Highland-University Park's Hourly Summary for Saturday, April 15, 2017
Hour Temp
(f)
RH
(%)
Solar Rad.
(MJ/m2)
Rainfall
(in)
Wind
(mph)
4/15/2017 12:00 AM 71 62 0 0 3.06
4/15/2017 1:00 AM 70 66 0 0 3.03
4/15/2017 2:00 AM 69 70 0 0 2.69
4/15/2017 3:00 AM 67 74 0 0 2.71
4/15/2017 4:00 AM 66 81 0 0 1.55
4/15/2017 5:00 AM 66 85 0 0 1.18
4/15/2017 6:00 AM 66 86 0 0 0.98
4/15/2017 7:00 AM 66 84 0 0 0.9
4/15/2017 8:00 AM 66 84 0.08 0 1.18
4/15/2017 9:00 AM 67 80 0.39 0 2.27
4/15/2017 10:00 AM 69 73 1.08 0 1.82
4/15/2017 11:00 AM 73 62 1.79 0 2.17
4/15/2017 12:00 PM 75 60 2.2 0 2.32
4/15/2017 1:00 PM 77 56 2.26 0 2.58
4/15/2017 2:00 PM 78 53 2.09 0 2.69
4/15/2017 3:00 PM 78 54 1.58 0 2.74
4/15/2017 4:00 PM 78 52 1.43 0 2.72
4/15/2017 5:00 PM 78 52 0.76 0 2.52
4/15/2017 6:00 PM 77 55 0.66 0 2.08
4/15/2017 7:00 PM 78 53 0.62 0 2.79
4/15/2017 8:00 PM 76 57 0.11 0 2.61
4/15/2017 9:00 PM 74 60 0 0 2.67
4/15/2017 10:00 PM 73 67 0 0 1.92
4/15/2017 11:00 PM 72 70 0 0 2.49
Data Summary 72 66 15.05 0.00 2.24